Time;durP1;ratioP1;P1;durP2;ratioP2;P2;SDS_P1;SDS_P2;PMS_P1;PMS_P2;Temp;Humidity;BMP_temperature;BMP_pressure;BME280_temperature;BME280_humidity;BME280_pressure;Samples;Min_cycle;Max_cycle;Signal;HPM_P1;HPM_P2
2024/01/26 00:02:44;;;;;;;3.80;2.30;;;;;;;1.88;84.52;100643.09;129897;1264;107389;-79
2024/01/26 00:05:50;;;;;;;4.80;2.90;;;;;;;1.84;84.46;100645.41;129850;1267;109062;-81
2024/01/26 00:08:55;;;;;;;8.40;4.30;;;;;;;1.83;84.53;100646.73;130045;1264;108550;-81
2024/01/26 00:12:01;;;;;;;8.90;4.50;;;;;;;1.87;84.80;100648.58;130126;1267;107736;-82
2024/01/26 00:15:07;;;;;;;8.10;4.60;;;;;;;1.91;84.70;100652.55;130118;1267;108802;-81
2024/01/26 00:18:13;;;;;;;6.90;4.00;;;;;;;1.95;84.30;100655.86;130154;1267;109117;-82
2024/01/26 00:21:19;;;;;;;7.00;4.40;;;;;;;1.91;83.63;100663.95;130101;1264;107317;-82
2024/01/26 00:24:24;;;;;;;4.90;2.50;;;;;;;1.86;83.50;100663.37;130112;1267;106755;-81
2024/01/26 00:27:30;;;;;;;6.50;3.80;;;;;;;1.84;83.64;100667.32;130177;1267;108804;-81
2024/01/26 00:30:37;;;;;;;4.20;2.20;;;;;;;1.85;84.07;100669.38;130118;1267;105588;-80
2024/01/26 00:33:42;;;;;;;4.20;2.70;;;;;;;1.83;83.28;100675.31;130189;1264;108591;-82
2024/01/26 00:36:48;;;;;;;3.50;2.10;;;;;;;1.80;83.29;100682.67;130125;1267;109109;-81
2024/01/26 00:39:53;;;;;;;4.30;3.00;;;;;;;1.80;82.94;100683.71;130125;1264;107715;-81
2024/01/26 00:42:59;;;;;;;2.60;1.70;;;;;;;1.82;82.93;100683.96;130171;1267;107644;-82
2024/01/26 00:46:05;;;;;;;2.70;1.90;;;;;;;1.79;82.05;100686.23;130224;1263;107706;-79
2024/01/26 00:49:10;;;;;;;4.20;2.50;;;;;;;1.71;81.86;100682.83;130041;1266;106940;-81
2024/01/26 00:52:16;;;;;;;2.20;1.60;;;;;;;1.70;82.28;100693.59;130266;1266;107755;-81
2024/01/26 00:55:22;;;;;;;2.60;2.00;;;;;;;1.67;82.10;100699.02;130253;1267;108690;-81
2024/01/26 00:58:28;;;;;;;1.60;1.20;;;;;;;1.62;81.95;100699.09;130112;1267;107817;-81
2024/01/26 01:01:34;;;;;;;2.00;1.60;;;;;;;1.60;82.18;100691.52;130148;1267;107975;-81
2024/01/26 01:04:40;;;;;;;2.70;1.60;;;;;;;1.61;82.66;100693.90;130152;1267;108099;-81
2024/01/26 01:07:46;;;;;;;2.50;1.50;;;;;;;1.61;82.71;100694.58;130247;1264;108772;-81
2024/01/26 01:10:51;;;;;;;2.50;1.50;;;;;;;1.59;82.83;100691.55;130033;1264;107323;-81
2024/01/26 01:13:57;;;;;;;2.70;1.80;;;;;;;1.55;82.77;100691.75;130200;1264;108605;-80
2024/01/26 01:17:04;;;;;;;2.10;1.50;;;;;;;1.53;83.02;100701.84;130187;1264;108423;-81
2024/01/26 01:20:11;;;;;;;1.90;1.40;;;;;;;1.54;82.93;100705.67;130225;1264;109027;-80
2024/01/26 01:23:16;;;;;;;2.50;1.50;;;;;;;1.56;83.13;100713.45;130213;1266;109554;-81
2024/01/26 01:26:22;;;;;;;3.00;1.70;;;;;;;1.60;83.23;100716.05;130194;1264;107614;-80
2024/01/26 01:29:28;;;;;;;2.50;1.80;;;;;;;1.60;83.26;100718.48;130188;1264;107369;-79
2024/01/26 01:32:34;;;;;;;4.00;1.80;;;;;;;1.59;83.28;100719.58;130008;1265;108597;-81
2024/01/26 01:35:39;;;;;;;3.50;2.00;;;;;;;1.57;83.58;100719.71;130180;1267;108646;-81
2024/01/26 01:38:45;;;;;;;5.10;2.10;;;;;;;1.56;83.84;100720.62;130130;1266;109153;-81
2024/01/26 01:41:51;;;;;;;4.40;2.20;;;;;;;1.56;83.95;100721.88;129967;1275;106661;-80
2024/01/26 01:44:57;;;;;;;5.20;2.10;;;;;;;1.61;84.07;100723.04;130199;1267;107733;-80
2024/01/26 01:48:03;;;;;;;2.90;1.90;;;;;;;1.64;83.96;100728.48;130237;1263;106476;-80
2024/01/26 01:51:09;;;;;;;2.30;1.60;;;;;;;1.68;84.07;100725.41;130209;1264;109156;-81
2024/01/26 01:54:16;;;;;;;3.20;1.80;;;;;;;1.72;83.91;100732.54;130246;1264;108607;-81
2024/01/26 01:57:24;;;;;;;2.70;1.90;;;;;;;1.71;83.97;100736.84;130006;1264;106541;-81
2024/01/26 02:00:31;;;;;;;3.40;2.00;;;;;;;1.68;83.94;100734.88;130141;1267;107692;-80
2024/01/26 02:03:37;;;;;;;3.00;1.90;;;;;;;1.66;83.96;100734.12;130089;1267;108653;-80
2024/01/26 02:06:53;;;;;;;3.60;2.00;;;;;;;1.60;83.85;100731.99;130201;1264;107555;-81
2024/01/26 02:09:59;;;;;;;3.60;1.80;;;;;;;1.58;84.16;100731.23;130229;1267;108652;-81
2024/01/26 02:13:05;;;;;;;2.70;1.80;;;;;;;1.62;84.37;100726.98;130220;1266;108546;-81
2024/01/26 02:16:11;;;;;;;2.60;1.80;;;;;;;1.69;84.14;100733.42;130200;1267;108715;-80
2024/01/26 02:19:16;;;;;;;2.50;1.90;;;;;;;1.72;84.05;100735.55;130188;1263;107622;-80
2024/01/26 02:22:22;;;;;;;4.80;2.20;;;;;;;1.73;84.10;100735.67;129992;1264;107722;-80
2024/01/26 02:25:27;;;;;;;3.00;2.10;;;;;;;1.71;84.28;100733.47;130221;1266;107664;-81
2024/01/26 02:28:33;;;;;;;3.20;2.20;;;;;;;1.69;84.78;100734.48;130217;1266;106370;-82
2024/01/26 02:31:39;;;;;;;3.50;2.10;;;;;;;1.67;85.14;100737.38;130180;1264;107695;-81
2024/01/26 02:34:44;;;;;;;4.00;2.60;;;;;;;1.65;85.82;100738.94;130198;1264;108525;-80
2024/01/26 02:37:50;;;;;;;5.10;2.50;;;;;;;1.62;86.11;100742.42;130117;1267;106976;-82
2024/01/26 02:40:55;;;;;;;4.80;2.60;;;;;;;1.65;86.45;100744.00;130220;1267;107123;-81
2024/01/26 02:44:01;;;;;;;6.40;2.50;;;;;;;1.69;86.73;100747.48;130235;1264;107578;-80
2024/01/26 02:47:07;;;;;;;4.40;2.50;;;;;;;1.72;86.97;100744.34;130202;1267;108787;-81
2024/01/26 02:50:13;;;;;;;4.60;2.70;;;;;;;1.72;87.12;100748.33;130130;1264;108682;-79
2024/01/26 02:53:18;;;;;;;4.60;2.40;;;;;;;1.69;87.15;100750.27;130015;1267;108759;-80
2024/01/26 02:56:24;;;;;;;5.10;2.40;;;;;;;1.68;87.37;100752.81;130134;1265;107654;-79
2024/01/26 02:59:30;;;;;;;4.00;2.60;;;;;;;1.67;86.98;100749.00;129887;1267;108698;-80
2024/01/26 03:02:35;;;;;;;5.10;3.00;;;;;;;1.68;87.20;100750.13;129944;1267;107995;-83
2024/01/26 03:05:41;;;;;;;4.70;2.90;;;;;;;1.73;87.46;100757.95;130113;1264;107657;-81
2024/01/26 03:08:47;;;;;;;6.10;3.00;;;;;;;1.74;87.75;100758.39;130168;1267;108862;-82
2024/01/26 03:11:52;;;;;;;4.80;3.30;;;;;;;1.75;87.45;100759.03;130171;1263;107523;-81
2024/01/26 03:14:58;;;;;;;5.90;4.00;;;;;;;1.78;87.63;100761.71;130126;1264;107516;-81
2024/01/26 03:18:04;;;;;;;7.60;4.50;;;;;;;1.76;87.72;100757.26;130157;1264;109155;-81
2024/01/26 03:21:09;;;;;;;6.70;3.80;;;;;;;1.74;87.67;100754.92;130109;1267;108833;-80
2024/01/26 03:24:15;;;;;;;6.10;3.50;;;;;;;1.73;87.83;100759.54;130075;1267;108920;-81
2024/01/26 03:27:20;;;;;;;6.30;4.30;;;;;;;1.72;87.55;100765.72;130138;1264;108656;-82
2024/01/26 03:30:26;;;;;;;5.90;3.90;;;;;;;1.74;87.59;100773.67;130144;1267;108813;-82
2024/01/26 03:33:32;;;;;;;6.20;4.30;;;;;;;1.74;87.63;100774.58;130178;1267;108665;-81
2024/01/26 03:36:37;;;;;;;6.60;4.60;;;;;;;1.74;87.62;100772.60;130193;1267;106376;-81
2024/01/26 03:39:43;;;;;;;6.40;4.90;;;;;;;1.74;87.66;100781.38;130416;1263;108498;-82
2024/01/26 03:42:48;;;;;;;6.60;5.10;;;;;;;1.72;87.70;100782.35;129927;1264;107506;-79
2024/01/26 03:45:54;;;;;;;16.20;9.00;;;;;;;1.69;87.55;100778.32;129886;1267;108488;-79
2024/01/26 03:49:01;;;;;;;4.80;3.50;;;;;;;1.69;87.55;100775.89;129889;1264;108500;-80
2024/01/26 03:52:07;;;;;;;17.20;7.30;;;;;;;1.73;87.52;100780.23;129931;1267;106604;-80
2024/01/26 03:55:13;;;;;;;23.90;8.60;;;;;;;1.77;87.25;100777.19;130061;1264;106540;-81
2024/01/26 03:58:18;;;;;;;6.40;3.30;;;;;;;1.82;87.13;100779.02;130266;1264;106327;-78
2024/01/26 04:01:24;;;;;;;65.40;22.20;;;;;;;1.83;86.68;100780.04;129699;1270;107803;-77
2024/01/26 04:04:29;;;;;;;129.00;40.50;;;;;;;1.83;86.61;100782.98;129742;1267;109017;-78
2024/01/26 04:07:35;;;;;;;33.70;14.90;;;;;;;1.83;86.64;100783.33;129675;1270;107400;-77
2024/01/26 04:10:41;;;;;;;11.40;5.50;;;;;;;1.85;86.37;100790.95;129610;1265;108582;-78
2024/01/26 04:13:46;;;;;;;7.50;3.70;;;;;;;1.87;86.04;100795.09;129625;1270;108730;-77
2024/01/26 04:16:52;;;;;;;8.80;4.90;;;;;;;1.88;85.99;100795.36;129631;1268;108744;-78
2024/01/26 04:19:57;;;;;;;33.80;13.50;;;;;;;1.91;85.80;100800.63;129649;1264;108716;-78
2024/01/26 04:23:03;;;;;;;6.50;3.10;;;;;;;1.96;85.87;100800.55;129638;1269;108828;-79
2024/01/26 04:26:09;;;;;;;7.40;4.70;;;;;;;1.96;85.62;100804.73;129675;1264;108791;-78
2024/01/26 04:29:15;;;;;;;5.40;2.60;;;;;;;1.93;85.30;100806.81;129649;1264;108074;-77
2024/01/26 04:32:20;;;;;;;4.40;2.70;;;;;;;1.86;85.18;100803.00;129653;1265;106301;-77
2024/01/26 04:35:26;;;;;;;5.80;2.40;;;;;;;1.77;84.98;100806.48;129669;1264;107994;-79
2024/01/26 04:38:31;;;;;;;4.70;2.40;;;;;;;1.72;85.37;100808.83;129633;1270;108493;-78
2024/01/26 04:41:37;;;;;;;3.50;2.10;;;;;;;1.73;85.66;100809.83;129611;1263;108652;-79
2024/01/26 04:44:43;;;;;;;5.80;3.50;;;;;;;1.76;85.52;100813.02;129611;1263;106093;-78
2024/01/26 04:47:49;;;;;;;4.70;2.90;;;;;;;1.79;85.25;100815.68;129595;1264;108008;-78
2024/01/26 04:50:54;;;;;;;2.60;2.10;;;;;;;1.78;84.91;100816.26;129680;1263;107162;-78
2024/01/26 04:54:00;;;;;;;2.90;2.20;;;;;;;1.74;85.27;100817.68;129639;1265;109183;-78
2024/01/26 04:57:06;;;;;;;4.20;2.80;;;;;;;1.73;85.27;100820.55;129659;1269;106772;-78
2024/01/26 05:00:13;;;;;;;8.30;5.30;;;;;;;1.69;85.38;100826.06;129648;1270;106736;-76
2024/01/26 05:03:19;;;;;;;15.10;7.70;;;;;;;1.65;85.41;100829.24;129608;1270;106903;-76
2024/01/26 05:06:25;;;;;;;6.80;3.60;;;;;;;1.64;85.37;100831.22;129623;1264;108253;-79
2024/01/26 05:09:30;;;;;;;4.40;2.60;;;;;;;1.65;85.68;100831.68;129590;1267;107690;-78
2024/01/26 05:12:36;;;;;;;19.90;9.30;;;;;;;1.69;85.49;100831.15;129775;1267;107191;-76
2024/01/26 05:15:42;;;;;;;5.10;2.90;;;;;;;1.71;85.74;100835.94;129915;1267;107046;-77
2024/01/26 05:18:47;;;;;;;6.50;4.20;;;;;;;1.74;85.52;100828.52;130014;1264;107202;-78
2024/01/26 05:21:53;;;;;;;11.30;4.50;;;;;;;1.74;85.03;100836.66;129926;1264;108023;-78
2024/01/26 05:24:59;;;;;;;8.10;4.40;;;;;;;1.68;84.58;100841.36;129897;1264;106766;-77
2024/01/26 05:28:06;;;;;;;6.50;3.90;;;;;;;1.65;84.98;100836.80;129937;1264;107594;-78
2024/01/26 05:31:11;;;;;;;8.10;4.00;;;;;;;1.69;85.10;100840.10;130039;1267;106995;-78
2024/01/26 05:34:18;;;;;;;32.90;12.00;;;;;;;1.73;84.94;100849.15;129881;1263;106790;-78
2024/01/26 05:37:23;;;;;;;6.70;3.50;;;;;;;1.75;84.91;100849.20;129864;1267;108633;-78
2024/01/26 05:40:29;;;;;;;8.50;4.80;;;;;;;1.78;85.21;100848.90;129910;1267;109931;-77
2024/01/26 05:43:35;;;;;;;42.60;13.80;;;;;;;1.82;85.32;100848.15;129782;1265;109079;-78
2024/01/26 05:46:40;;;;;;;38.90;13.50;;;;;;;1.85;85.14;100846.23;129921;1264;108734;-78
2024/01/26 05:49:46;;;;;;;7.30;4.10;;;;;;;1.84;84.99;100843.11;129962;1267;106752;-78
2024/01/26 05:52:52;;;;;;;8.30;5.70;;;;;;;1.78;84.85;100841.35;129897;1267;106993;-79
2024/01/26 05:56:00;;;;;;;10.70;5.40;;;;;;;1.75;84.97;100846.38;129910;1264;106412;-78
2024/01/26 05:59:06;;;;;;;135.40;46.90;;;;;;;1.79;85.12;100847.77;129937;1264;106805;-77
2024/01/26 06:02:12;;;;;;;7.90;3.70;;;;;;;1.80;84.08;100853.86;129914;1267;108041;-77
2024/01/26 06:05:18;;;;;;;6.60;3.90;;;;;;;1.78;84.50;100848.90;129901;1267;108819;-77
2024/01/26 06:08:24;;;;;;;22.70;11.70;;;;;;;1.80;84.37;100848.92;129781;1267;108753;-77
2024/01/26 06:11:29;;;;;;;6.40;3.70;;;;;;;1.83;84.22;100852.80;129792;1264;107774;-77
2024/01/26 06:14:37;;;;;;;9.70;5.10;;;;;;;1.80;83.79;100850.16;129803;1264;108461;-78
2024/01/26 06:17:43;;;;;;;6.60;3.40;;;;;;;1.79;84.21;100851.45;129821;1264;106659;-77
2024/01/26 06:20:48;;;;;;;5.50;3.30;;;;;;;1.77;83.83;100855.59;129915;1264;108706;-77
2024/01/26 06:23:54;;;;;;;7.00;3.00;;;;;;;1.76;83.86;100851.94;129848;1264;108628;-74
2024/01/26 06:27:00;;;;;;;6.60;4.10;;;;;;;1.76;83.42;100846.72;129817;1267;109070;-77
2024/01/26 06:30:08;;;;;;;107.70;46.40;;;;;;;1.77;83.97;100845.41;129907;1267;106855;-76
2024/01/26 06:33:14;;;;;;;124.20;56.50;;;;;;;1.87;83.72;100846.99;129983;1267;109327;-77
2024/01/26 06:36:22;;;;;;;45.70;20.50;;;;;;;1.93;83.78;100851.39;129856;1264;107750;-77
2024/01/26 06:39:28;;;;;;;23.00;11.80;;;;;;;1.99;83.63;100854.07;129888;1265;108788;-76
2024/01/26 06:42:33;;;;;;;74.80;32.20;;;;;;;1.99;83.02;100853.02;129920;1267;106546;-76
2024/01/26 06:45:39;;;;;;;22.60;12.60;;;;;;;1.94;82.95;100852.02;129941;1263;108909;-78
2024/01/26 06:48:45;;;;;;;6.80;4.00;;;;;;;1.90;82.47;100851.91;129956;1264;106613;-80
2024/01/26 06:51:50;;;;;;;8.20;4.70;;;;;;;1.81;82.04;100846.83;129847;1267;108360;-81
2024/01/26 06:54:56;;;;;;;10.70;5.60;;;;;;;1.74;81.97;100846.45;130086;1280;109397;-81
2024/01/26 06:58:01;;;;;;;9.30;4.70;;;;;;;1.70;82.41;100845.80;130108;1265;108607;-81
2024/01/26 07:01:08;;;;;;;32.00;15.50;;;;;;;1.68;82.46;100845.55;129991;1264;109459;-82
2024/01/26 07:04:13;;;;;;;16.20;8.40;;;;;;;1.67;82.27;100852.27;130096;1267;108784;-81
2024/01/26 07:07:19;;;;;;;20.30;9.50;;;;;;;1.70;82.60;100857.90;130170;1264;107687;-81
2024/01/26 07:10:24;;;;;;;12.50;7.10;;;;;;;1.77;82.98;100861.23;130112;1264;107065;-82
2024/01/26 07:13:30;;;;;;;209.10;101.00;;;;;;;1.85;82.36;100864.83;130134;1267;107234;-81
2024/01/26 07:16:35;;;;;;;14.20;6.80;;;;;;;1.89;82.24;100869.68;130297;1263;107010;-81
2024/01/26 07:19:41;;;;;;;11.60;6.70;;;;;;;1.90;82.28;100873.51;130121;1264;108667;-81
2024/01/26 07:22:47;;;;;;;13.20;7.20;;;;;;;1.89;82.27;100878.79;130115;1267;108624;-80
2024/01/26 07:25:52;;;;;;;7.00;3.80;;;;;;;1.89;81.91;100882.67;130005;1267;107789;-80
2024/01/26 07:28:58;;;;;;;4.80;3.30;;;;;;;1.86;81.42;100887.59;130077;1265;107978;-82
2024/01/26 07:32:04;;;;;;;7.70;5.20;;;;;;;1.80;81.38;100892.45;130147;1264;106610;-82
2024/01/26 07:35:10;;;;;;;5.30;3.40;;;;;;;1.82;81.57;100893.79;130173;1265;106221;-81
2024/01/26 07:38:16;;;;;;;6.80;4.20;;;;;;;1.83;81.43;100894.41;130024;1264;107100;-82
2024/01/26 07:41:21;;;;;;;33.40;15.50;;;;;;;1.82;80.21;100897.99;130130;1264;106992;-82
2024/01/26 07:44:27;;;;;;;38.50;17.00;;;;;;;1.83;80.90;100902.83;130195;1264;107702;-82
2024/01/26 07:47:34;;;;;;;72.30;32.30;;;;;;;1.87;80.16;100902.06;130238;1265;106497;-80
2024/01/26 07:50:41;;;;;;;51.10;24.10;;;;;;;1.91;80.87;100902.72;130512;1264;106686;-81
2024/01/26 07:53:46;;;;;;;34.40;16.50;;;;;;;2.03;81.42;100904.07;130093;1264;107659;-82
2024/01/26 07:56:52;;;;;;;30.40;17.30;;;;;;;2.14;81.17;100899.73;130119;1267;107257;-80
2024/01/26 07:59:58;;;;;;;9.20;5.30;;;;;;;2.15;79.69;100904.79;129903;1267;105578;-82
2024/01/26 08:03:04;;;;;;;12.60;7.10;;;;;;;2.12;80.62;100906.55;130121;1267;107030;-82
2024/01/26 08:06:11;;;;;;;6.20;4.40;;;;;;;2.15;79.84;100902.50;129923;1268;106844;-80
2024/01/26 08:09:17;;;;;;;7.40;5.10;;;;;;;2.13;79.35;100906.67;129901;1264;108364;-82
2024/01/26 08:12:23;;;;;;;5.10;3.50;;;;;;;2.07;78.33;100903.98;129887;1263;108677;-82
2024/01/26 08:15:29;;;;;;;4.20;2.50;;;;;;;2.05;78.63;100904.98;129939;1263;108691;-81
2024/01/26 08:18:35;;;;;;;5.60;3.80;;;;;;;2.00;77.41;100903.36;129888;1265;106547;-81
2024/01/26 08:21:40;;;;;;;7.80;4.40;;;;;;;1.96;77.60;100905.80;129717;1269;107450;-80
2024/01/26 08:24:46;;;;;;;11.30;6.20;;;;;;;1.97;78.81;100902.93;129576;1264;106825;-82
2024/01/26 08:27:53;;;;;;;103.80;50.40;;;;;;;2.05;77.55;100902.52;129711;1263;108651;-81
2024/01/26 08:30:59;;;;;;;17.10;9.10;;;;;;;2.07;77.41;100903.64;129925;1265;108026;-78
2024/01/26 08:34:04;;;;;;;11.60;6.30;;;;;;;2.09;77.70;100901.10;129676;1264;107699;-80
2024/01/26 08:37:10;;;;;;;6.50;4.10;;;;;;;2.16;78.64;100897.00;129881;1268;106571;-81
2024/01/26 08:40:16;;;;;;;4.10;2.60;;;;;;;2.24;78.19;100899.59;129908;1264;107795;-81
2024/01/26 08:43:21;;;;;;;7.60;4.90;;;;;;;2.28;78.82;100899.55;129990;1271;108725;-81
2024/01/26 08:46:27;;;;;;;4.20;3.00;;;;;;;2.33;77.92;100901.56;129910;1263;108160;-80
2024/01/26 08:49:33;;;;;;;5.20;2.60;;;;;;;2.27;77.54;100897.45;129903;1264;106831;-82
2024/01/26 08:52:38;;;;;;;4.70;2.90;;;;;;;2.20;77.18;100897.70;129854;1263;108636;-82
2024/01/26 08:55:44;;;;;;;6.30;4.10;;;;;;;2.16;77.58;100897.20;129901;1264;108743;-81
2024/01/26 08:58:50;;;;;;;4.60;3.40;;;;;;;2.12;77.32;100900.41;129908;1270;107523;-82
2024/01/26 09:01:55;;;;;;;5.00;3.60;;;;;;;2.13;77.71;100891.74;129883;1264;107774;-81
2024/01/26 09:05:01;;;;;;;6.40;4.00;;;;;;;2.20;78.42;100885.38;130070;1267;107589;-81
2024/01/26 09:08:07;;;;;;;4.60;2.90;;;;;;;2.31;78.45;100881.27;130028;1268;106959;-80
2024/01/26 09:11:14;;;;;;;7.00;3.70;;;;;;;2.40;78.60;100874.98;129997;1267;107739;-80
2024/01/26 09:14:19;;;;;;;5.50;3.40;;;;;;;2.52;78.37;100879.77;130182;1267;108704;-82
2024/01/26 09:17:25;;;;;;;5.20;3.60;;;;;;;2.67;78.51;100876.45;130135;1265;109001;-82
2024/01/26 09:20:30;;;;;;;5.30;3.80;;;;;;;2.82;78.12;100873.49;130114;1267;108729;-82
2024/01/26 09:23:36;;;;;;;5.70;3.50;;;;;;;2.91;77.51;100870.91;130071;1267;108936;-82
2024/01/26 09:26:42;;;;;;;5.90;3.20;;;;;;;2.86;76.71;100867.84;130158;1267;106266;-82
2024/01/26 09:29:47;;;;;;;7.10;4.10;;;;;;;2.80;77.07;100866.45;130239;1263;107624;-82
2024/01/26 09:32:53;;;;;;;6.40;3.70;;;;;;;2.83;78.26;100863.41;130263;1266;108119;-81
2024/01/26 09:35:58;;;;;;;7.70;4.80;;;;;;;2.85;76.97;100860.15;130245;1266;108623;-81
2024/01/26 09:39:04;;;;;;;12.60;9.40;;;;;;;2.84;77.46;100854.57;130238;1267;106735;-82
2024/01/26 09:42:10;;;;;;;37.50;26.30;;;;;;;2.86;77.17;100849.91;130184;1265;107781;-82
2024/01/26 09:45:16;;;;;;;15.50;9.10;;;;;;;2.87;77.31;100844.08;130207;1266;107590;-81
2024/01/26 09:48:22;;;;;;;14.90;9.20;;;;;;;2.87;77.15;100846.48;130285;1265;106857;-81
2024/01/26 09:51:28;;;;;;;9.30;5.80;;;;;;;2.90;78.24;100845.80;130266;1266;107176;-82
2024/01/26 09:54:33;;;;;;;8.10;5.80;;;;;;;2.95;77.93;100847.11;130193;1266;107564;-79
2024/01/26 09:57:40;;;;;;;6.50;4.40;;;;;;;3.00;77.95;100838.35;130104;1265;107771;-79
2024/01/26 10:00:46;;;;;;;6.90;4.50;;;;;;;3.06;77.80;100835.02;130099;1265;107739;-80
2024/01/26 10:03:53;;;;;;;9.50;6.20;;;;;;;3.15;78.18;100834.14;130286;1267;106552;-80
2024/01/26 10:06:59;;;;;;;7.80;4.80;;;;;;;3.31;77.87;100828.64;130184;1266;108662;-80
2024/01/26 10:10:07;;;;;;;7.40;4.20;;;;;;;3.36;77.56;100830.77;130262;1263;108529;-80
2024/01/26 10:13:14;;;;;;;13.30;10.50;;;;;;;3.37;77.09;100819.67;130185;1266;108769;-80
2024/01/26 10:16:19;;;;;;;11.70;7.70;;;;;;;3.39;77.53;100810.55;130280;1264;107577;-80
2024/01/26 10:19:26;;;;;;;8.60;5.40;;;;;;;3.38;76.92;100806.20;130280;1267;107780;-80
2024/01/26 10:22:32;;;;;;;8.40;5.30;;;;;;;3.33;77.14;100801.77;130288;1267;106812;-79
2024/01/26 10:25:40;;;;;;;10.80;6.40;;;;;;;3.31;76.86;100793.95;130102;1265;108712;-79
2024/01/26 10:28:48;;;;;;;8.70;5.70;;;;;;;3.31;76.96;100802.06;130046;1267;106563;-79
2024/01/26 10:31:53;;;;;;;10.60;7.10;;;;;;;3.29;77.05;100801.13;130112;1262;108551;-81
2024/01/26 10:35:01;;;;;;;8.60;5.50;;;;;;;3.30;77.22;100801.22;130224;1265;109024;-82
2024/01/26 10:38:10;;;;;;;12.00;7.40;;;;;;;3.33;77.66;100790.19;130247;1266;108717;-80
2024/01/26 10:41:21;;;;;;;100.20;46.30;;;;;;;3.39;78.03;100787.34;130246;1280;107654;-80
2024/01/26 10:44:27;;;;;;;8.10;5.30;;;;;;;3.47;76.99;100787.02;130262;1263;106829;-80
2024/01/26 10:47:35;;;;;;;7.60;4.90;;;;;;;3.46;76.76;100780.56;130211;1285;107743;-80
2024/01/26 10:50:41;;;;;;;7.60;5.00;;;;;;;3.51;77.31;100782.39;130256;1267;106176;-80
2024/01/26 10:53:48;;;;;;;21.80;12.60;;;;;;;3.56;76.93;100774.73;130225;1265;108145;-81
2024/01/26 10:56:54;;;;;;;10.90;6.90;;;;;;;3.61;77.26;100773.35;130283;1266;106669;-81
2024/01/26 11:00:00;;;;;;;8.90;6.30;;;;;;;3.71;77.70;100766.05;130230;1266;109104;-82
2024/01/26 11:03:07;;;;;;;24.20;17.30;;;;;;;3.76;77.17;100761.48;130222;1265;107446;-78
2024/01/26 11:06:13;;;;;;;10.90;8.00;;;;;;;3.84;77.63;100760.83;130271;1266;108589;-81
2024/01/26 11:09:21;;;;;;;31.20;22.20;;;;;;;3.86;77.26;100757.70;130171;1267;108566;-82
2024/01/26 11:12:29;;;;;;;45.80;33.50;;;;;;;3.88;78.15;100762.29;130259;1267;107422;-80
2024/01/26 11:15:40;;;;;;;14.90;9.10;;;;;;;3.96;77.39;100754.77;130162;1267;105893;-80
2024/01/26 11:18:54;;;;;;;63.50;48.60;;;;;;;3.83;76.68;100754.54;130173;1267;106857;-82
2024/01/26 11:22:23;;;;;;;24.70;18.20;;;;;;;3.75;77.96;100754.00;130194;1267;108669;-81
2024/01/26 11:25:47;;;;;;;11.10;7.80;;;;;;;3.77;77.46;100751.58;129896;1267;107914;-80
2024/01/26 11:28:53;;;;;;;12.70;7.30;;;;;;;3.60;76.82;100739.42;130024;1267;108055;-81
2024/01/26 11:31:58;;;;;;;15.30;9.70;;;;;;;3.53;77.82;100735.08;130106;1265;108726;-85
2024/01/26 11:35:07;;;;;;;21.50;16.70;;;;;;;3.58;78.43;100730.42;130127;1268;107825;-88
2024/01/26 11:38:13;;;;;;;10.00;6.20;;;;;;;3.66;78.16;100726.75;130276;1267;106557;-85
2024/01/26 11:41:19;;;;;;;8.60;5.60;;;;;;;3.72;78.06;100726.86;130064;1267;107144;-83
2024/01/26 11:44:30;;;;;;;11.80;6.80;;;;;;;3.79;78.15;100724.67;130000;1268;107965;-80
2024/01/26 11:47:39;;;;;;;145.90;70.30;;;;;;;3.92;78.52;100724.23;129906;1264;108294;-79
2024/01/26 11:50:47;;;;;;;134.60;64.00;;;;;;;4.07;78.58;100710.75;129868;1270;106622;-81
2024/01/26 11:53:53;;;;;;;175.70;86.80;;;;;;;4.24;78.44;100704.21;129765;1270;107811;-80
2024/01/26 11:56:59;;;;;;;92.40;49.00;;;;;;;4.38;78.63;100694.46;129891;1271;108582;-83
2024/01/26 12:00:06;;;;;;;58.50;29.60;;;;;;;4.48;78.25;100690.78;129956;1269;107369;-81
2024/01/26 12:03:15;;;;;;;196.60;113.60;;;;;;;4.49;78.33;100686.46;129961;1267;106861;-84
2024/01/26 12:06:21;;;;;;;65.10;35.20;;;;;;;4.54;78.24;100681.95;130368;1265;106572;-83
2024/01/26 12:09:28;;;;;;;51.80;28.80;;;;;;;4.56;78.23;100683.06;130234;1270;106675;-81
2024/01/26 12:12:34;;;;;;;182.30;99.60;;;;;;;4.52;78.10;100677.27;130102;1267;107201;-80
2024/01/26 12:15:40;;;;;;;47.20;23.30;;;;;;;4.56;78.41;100674.24;130395;1267;107536;-81
2024/01/26 12:18:47;;;;;;;45.50;25.20;;;;;;;4.56;78.24;100668.42;130303;1264;107464;-85
2024/01/26 12:21:52;;;;;;;45.90;27.00;;;;;;;4.55;78.29;100657.89;130348;1270;105738;-82
2024/01/26 12:25:02;;;;;;;33.10;21.30;;;;;;;4.58;78.44;100650.27;130171;1264;106423;-82
2024/01/26 12:28:08;;;;;;;16.90;10.70;;;;;;;4.62;78.53;100645.40;129912;1268;107683;-81
2024/01/26 12:31:15;;;;;;;23.00;14.10;;;;;;;4.64;78.43;100635.98;130101;1270;108832;-81
2024/01/26 12:34:21;;;;;;;14.50;8.60;;;;;;;4.65;78.50;100629.55;130083;1264;107076;-81
2024/01/26 12:37:28;;;;;;;40.90;28.20;;;;;;;4.67;78.75;100625.70;129979;1270;108739;-80
2024/01/26 12:40:33;;;;;;;71.40;37.80;;;;;;;4.69;78.56;100628.02;130181;1265;106536;-81
2024/01/26 12:43:39;;;;;;;27.10;16.50;;;;;;;4.73;78.62;100630.23;130226;1265;107599;-79
2024/01/26 12:46:44;;;;;;;36.80;22.90;;;;;;;4.81;78.48;100640.61;130102;1270;106578;-80
2024/01/26 12:49:50;;;;;;;20.30;11.70;;;;;;;4.89;78.58;100634.23;130196;1264;108424;-80
2024/01/26 12:52:56;;;;;;;24.20;13.00;;;;;;;4.96;78.59;100635.52;130335;1263;107721;-81
2024/01/26 12:56:03;;;;;;;15.50;6.80;;;;;;;4.99;78.37;100629.64;130321;1264;108988;-81
2024/01/26 12:59:09;;;;;;;14.10;9.00;;;;;;;4.99;78.42;100617.45;130517;1267;108451;-79
2024/01/26 13:02:15;;;;;;;21.10;17.00;;;;;;;5.01;78.48;100612.44;130500;1265;108700;-80
2024/01/26 13:05:21;;;;;;;33.30;23.20;;;;;;;5.01;78.41;100607.27;130147;1270;107231;-80
2024/01/26 13:08:26;;;;;;;38.50;27.20;;;;;;;5.00;78.29;100604.07;130031;1265;108739;-80
2024/01/26 13:11:32;;;;;;;29.30;20.00;;;;;;;4.97;78.54;100599.29;130183;1267;108656;-80
2024/01/26 13:14:37;;;;;;;19.10;12.90;;;;;;;4.96;78.38;100595.16;130111;1270;107467;-81
2024/01/26 13:17:43;;;;;;;19.20;11.70;;;;;;;4.95;78.53;100581.11;130230;1269;108752;-80
2024/01/26 13:20:48;;;;;;;18.80;11.00;;;;;;;4.94;78.53;100576.60;130411;1269;107083;-80
2024/01/26 13:23:54;;;;;;;12.60;7.50;;;;;;;4.91;78.39;100567.61;130364;1268;107625;-80
2024/01/26 13:26:59;;;;;;;22.80;12.10;;;;;;;4.91;78.63;100565.73;130859;1268;108694;-82
2024/01/26 13:30:06;;;;;;;16.20;9.40;;;;;;;4.92;78.33;100555.39;130557;1269;106574;-83
2024/01/26 13:33:12;;;;;;;16.80;9.80;;;;;;;4.89;78.41;100546.63;130641;1270;106229;-83
2024/01/26 13:36:17;;;;;;;15.00;8.50;;;;;;;4.87;78.47;100545.33;130828;1264;108695;-83
2024/01/26 13:39:23;;;;;;;15.80;8.10;;;;;;;4.85;78.65;100545.52;130910;1269;107812;-83
2024/01/26 13:42:29;;;;;;;14.70;7.10;;;;;;;4.84;78.48;100542.02;130780;1270;108705;-81
2024/01/26 13:45:35;;;;;;;11.40;6.40;;;;;;;4.82;78.74;100538.30;130716;1268;108953;-81
2024/01/26 13:48:40;;;;;;;10.80;6.30;;;;;;;4.85;78.71;100525.73;130792;1269;108438;-81
2024/01/26 13:51:46;;;;;;;12.30;7.20;;;;;;;4.92;78.63;100522.95;130668;1270;108791;-81
2024/01/26 13:54:52;;;;;;;15.90;7.40;;;;;;;5.00;78.93;100518.70;130688;1264;107875;-81
2024/01/26 13:57:57;;;;;;;12.90;8.00;;;;;;;5.07;78.72;100509.70;130610;1264;106796;-81
2024/01/26 14:01:04;;;;;;;16.10;8.70;;;;;;;5.10;78.59;100503.46;130717;1265;106693;-81
2024/01/26 14:04:09;;;;;;;15.90;9.00;;;;;;;5.11;78.62;100502.70;130711;1264;107684;-81
2024/01/26 14:07:15;;;;;;;15.40;8.70;;;;;;;5.07;78.52;100495.94;130432;1263;108416;-81
2024/01/26 14:10:21;;;;;;;15.00;8.80;;;;;;;5.04;78.60;100487.21;130554;1265;108124;-81